sensor_id;sensor_type;location;lat;lon;timestamp;P1;durP1;ratioP1;P2;durP2;ratioP2
45011;SDS011;63444;48.148;11.542;2023-01-28T00:00:03;21.77;;;16.00;;
45011;SDS011;63444;48.148;11.542;2023-01-28T00:02:31;22.63;;;16.20;;
45011;SDS011;63444;48.148;11.542;2023-01-28T00:04:57;20.37;;;16.03;;
45011;SDS011;63444;48.148;11.542;2023-01-28T00:07:25;20.20;;;15.23;;
45011;SDS011;63444;48.148;11.542;2023-01-28T00:09:51;18.93;;;15.33;;
45011;SDS011;63444;48.148;11.542;2023-01-28T00:12:17;21.70;;;15.07;;
45011;SDS011;63444;48.148;11.542;2023-01-28T00:14:44;21.93;;;16.37;;
45011;SDS011;63444;48.148;11.542;2023-01-28T00:17:13;22.07;;;16.43;;
45011;SDS011;63444;48.148;11.542;2023-01-28T00:19:39;20.50;;;15.17;;
45011;SDS011;63444;48.148;11.542;2023-01-28T00:22:04;21.87;;;16.50;;
45011;SDS011;63444;48.148;11.542;2023-01-28T00:24:30;21.77;;;17.13;;
45011;SDS011;63444;48.148;11.542;2023-01-28T00:26:56;20.37;;;15.47;;
45011;SDS011;63444;48.148;11.542;2023-01-28T00:29:23;22.43;;;17.10;;
45011;SDS011;63444;48.148;11.542;2023-01-28T00:31:48;22.30;;;16.20;;
45011;SDS011;63444;48.148;11.542;2023-01-28T00:34:14;22.23;;;16.33;;
45011;SDS011;63444;48.148;11.542;2023-01-28T00:36:40;23.70;;;17.00;;
45011;SDS011;63444;48.148;11.542;2023-01-28T00:39:06;21.63;;;16.33;;
45011;SDS011;63444;48.148;11.542;2023-01-28T00:41:35;24.47;;;17.80;;
45011;SDS011;63444;48.148;11.542;2023-01-28T00:44:01;22.83;;;16.63;;
45011;SDS011;63444;48.148;11.542;2023-01-28T00:46:27;24.10;;;17.27;;
45011;SDS011;63444;48.148;11.542;2023-01-28T00:48:52;20.03;;;15.50;;
45011;SDS011;63444;48.148;11.542;2023-01-28T00:51:18;21.40;;;16.20;;
45011;SDS011;63444;48.148;11.542;2023-01-28T00:53:45;23.57;;;17.70;;
45011;SDS011;63444;48.148;11.542;2023-01-28T00:56:11;22.03;;;16.53;;
45011;SDS011;63444;48.148;11.542;2023-01-28T00:58:38;22.90;;;16.27;;
45011;SDS011;63444;48.148;11.542;2023-01-28T01:03:33;22.27;;;16.57;;
45011;SDS011;63444;48.148;11.542;2023-01-28T01:05:59;23.23;;;17.53;;
45011;SDS011;63444;48.148;11.542;2023-01-28T01:08:25;21.97;;;15.93;;
45011;SDS011;63444;48.148;11.542;2023-01-28T01:10:59;24.30;;;18.10;;
45011;SDS011;63444;48.148;11.542;2023-01-28T01:13:26;21.83;;;16.33;;
45011;SDS011;63444;48.148;11.542;2023-01-28T01:16:11;25.83;;;17.70;;
45011;SDS011;63444;48.148;11.542;2023-01-28T01:18:40;23.87;;;16.20;;
45011;SDS011;63444;48.148;11.542;2023-01-28T01:21:08;22.40;;;16.77;;
45011;SDS011;63444;48.148;11.542;2023-01-28T01:23:38;21.53;;;16.50;;
45011;SDS011;63444;48.148;11.542;2023-01-28T01:26:04;22.60;;;17.47;;
45011;SDS011;63444;48.148;11.542;2023-01-28T01:28:31;24.53;;;18.07;;
45011;SDS011;63444;48.148;11.542;2023-01-28T01:31:00;22.50;;;16.90;;
45011;SDS011;63444;48.148;11.542;2023-01-28T01:33:28;24.20;;;17.37;;
45011;SDS011;63444;48.148;11.542;2023-01-28T01:35:54;23.80;;;16.47;;
45011;SDS011;63444;48.148;11.542;2023-01-28T01:38:21;23.20;;;17.17;;
45011;SDS011;63444;48.148;11.542;2023-01-28T01:40:46;22.23;;;16.90;;
45011;SDS011;63444;48.148;11.542;2023-01-28T01:43:17;22.87;;;16.63;;
45011;SDS011;63444;48.148;11.542;2023-01-28T01:45:44;22.03;;;16.47;;
45011;SDS011;63444;48.148;11.542;2023-01-28T01:48:21;24.60;;;17.70;;
45011;SDS011;63444;48.148;11.542;2023-01-28T01:51:08;22.97;;;16.10;;
45011;SDS011;63444;48.148;11.542;2023-01-28T01:53:46;27.60;;;18.03;;
45011;SDS011;63444;48.148;11.542;2023-01-28T01:56:16;21.90;;;16.67;;
45011;SDS011;63444;48.148;11.542;2023-01-28T01:58:47;23.43;;;17.00;;
45011;SDS011;63444;48.148;11.542;2023-01-28T02:01:15;24.47;;;16.90;;
45011;SDS011;63444;48.148;11.542;2023-01-28T02:03:46;26.87;;;18.47;;
45011;SDS011;63444;48.148;11.542;2023-01-28T02:06:42;23.53;;;17.57;;
45011;SDS011;63444;48.148;11.542;2023-01-28T02:11:57;25.03;;;18.17;;
45011;SDS011;63444;48.148;11.542;2023-01-28T02:14:26;23.57;;;17.50;;
45011;SDS011;63444;48.148;11.542;2023-01-28T02:16:54;21.90;;;16.93;;
45011;SDS011;63444;48.148;11.542;2023-01-28T02:19:20;21.80;;;17.13;;
45011;SDS011;63444;48.148;11.542;2023-01-28T02:21:55;23.73;;;16.57;;
45011;SDS011;63444;48.148;11.542;2023-01-28T02:27:26;24.80;;;17.77;;
45011;SDS011;63444;48.148;11.542;2023-01-28T02:30:02;23.43;;;16.87;;
45011;SDS011;63444;48.148;11.542;2023-01-28T02:32:58;22.17;;;16.17;;
45011;SDS011;63444;48.148;11.542;2023-01-28T02:35:35;20.37;;;15.27;;
45011;SDS011;63444;48.148;11.542;2023-01-28T02:40:36;23.60;;;17.27;;
45011;SDS011;63444;48.148;11.542;2023-01-28T02:46:11;23.97;;;17.07;;
45011;SDS011;63444;48.148;11.542;2023-01-28T02:50:08;22.20;;;16.97;;
45011;SDS011;63444;48.148;11.542;2023-01-28T02:53:06;20.67;;;15.63;;
45011;SDS011;63444;48.148;11.542;2023-01-28T02:55:46;23.47;;;16.00;;
45011;SDS011;63444;48.148;11.542;2023-01-28T03:01:09;23.23;;;15.47;;
45011;SDS011;63444;48.148;11.542;2023-01-28T03:04:02;20.80;;;15.90;;
45011;SDS011;63444;48.148;11.542;2023-01-28T03:06:38;21.17;;;15.97;;
45011;SDS011;63444;48.148;11.542;2023-01-28T03:09:09;21.30;;;15.53;;
45011;SDS011;63444;48.148;11.542;2023-01-28T03:15:00;19.83;;;15.60;;
45011;SDS011;63444;48.148;11.542;2023-01-28T03:23:58;21.13;;;15.57;;
45011;SDS011;63444;48.148;11.542;2023-01-28T03:26:48;20.30;;;15.83;;
45011;SDS011;63444;48.148;11.542;2023-01-28T03:29:53;18.73;;;14.50;;
45011;SDS011;63444;48.148;11.542;2023-01-28T03:32:41;19.80;;;15.17;;
45011;SDS011;63444;48.148;11.542;2023-01-28T03:35:28;21.87;;;13.70;;
45011;SDS011;63444;48.148;11.542;2023-01-28T03:38:15;23.20;;;16.97;;
45011;SDS011;63444;48.148;11.542;2023-01-28T03:41:03;23.93;;;17.23;;
45011;SDS011;63444;48.148;11.542;2023-01-28T03:43:29;24.53;;;16.70;;
45011;SDS011;63444;48.148;11.542;2023-01-28T03:45:55;24.53;;;16.83;;
45011;SDS011;63444;48.148;11.542;2023-01-28T03:48:22;22.83;;;17.27;;
45011;SDS011;63444;48.148;11.542;2023-01-28T03:50:49;25.10;;;18.27;;
45011;SDS011;63444;48.148;11.542;2023-01-28T03:53:16;22.20;;;16.27;;
45011;SDS011;63444;48.148;11.542;2023-01-28T03:55:47;23.37;;;17.50;;
45011;SDS011;63444;48.148;11.542;2023-01-28T03:58:14;23.70;;;16.67;;
45011;SDS011;63444;48.148;11.542;2023-01-28T04:00:41;24.17;;;16.63;;
45011;SDS011;63444;48.148;11.542;2023-01-28T04:03:08;22.70;;;17.40;;
45011;SDS011;63444;48.148;11.542;2023-01-28T04:05:59;22.30;;;16.63;;
45011;SDS011;63444;48.148;11.542;2023-01-28T04:08:27;26.47;;;17.93;;
45011;SDS011;63444;48.148;11.542;2023-01-28T04:10:53;21.83;;;16.13;;
45011;SDS011;63444;48.148;11.542;2023-01-28T04:13:18;22.83;;;17.10;;
45011;SDS011;63444;48.148;11.542;2023-01-28T04:15:44;26.63;;;18.13;;
45011;SDS011;63444;48.148;11.542;2023-01-28T04:18:10;24.57;;;17.70;;
45011;SDS011;63444;48.148;11.542;2023-01-28T04:20:36;23.27;;;17.13;;
45011;SDS011;63444;48.148;11.542;2023-01-28T04:23:03;23.40;;;17.37;;
45011;SDS011;63444;48.148;11.542;2023-01-28T04:25:30;22.93;;;17.67;;
45011;SDS011;63444;48.148;11.542;2023-01-28T04:27:56;22.50;;;16.43;;
45011;SDS011;63444;48.148;11.542;2023-01-28T04:30:22;21.87;;;16.37;;
45011;SDS011;63444;48.148;11.542;2023-01-28T04:32:48;23.27;;;16.43;;
45011;SDS011;63444;48.148;11.542;2023-01-28T04:35:17;23.47;;;17.00;;
45011;SDS011;63444;48.148;11.542;2023-01-28T04:37:44;22.63;;;16.83;;
45011;SDS011;63444;48.148;11.542;2023-01-28T04:40:10;23.70;;;17.30;;
45011;SDS011;63444;48.148;11.542;2023-01-28T04:42:37;21.27;;;16.70;;
45011;SDS011;63444;48.148;11.542;2023-01-28T04:45:03;19.97;;;15.13;;
45011;SDS011;63444;48.148;11.542;2023-01-28T04:47:30;20.97;;;16.20;;
45011;SDS011;63444;48.148;11.542;2023-01-28T04:49:55;22.87;;;16.83;;
45011;SDS011;63444;48.148;11.542;2023-01-28T04:52:21;21.77;;;16.90;;
45011;SDS011;63444;48.148;11.542;2023-01-28T04:54:46;21.67;;;15.77;;
45011;SDS011;63444;48.148;11.542;2023-01-28T04:57:12;22.83;;;16.67;;
45011;SDS011;63444;48.148;11.542;2023-01-28T04:59:38;23.60;;;17.23;;
45011;SDS011;63444;48.148;11.542;2023-01-28T05:02:04;23.93;;;17.63;;
45011;SDS011;63444;48.148;11.542;2023-01-28T05:04:29;23.50;;;16.77;;
45011;SDS011;63444;48.148;11.542;2023-01-28T05:06:55;22.80;;;16.67;;
45011;SDS011;63444;48.148;11.542;2023-01-28T05:09:22;22.53;;;17.00;;
45011;SDS011;63444;48.148;11.542;2023-01-28T05:11:47;22.53;;;16.60;;
45011;SDS011;63444;48.148;11.542;2023-01-28T05:14:13;21.87;;;16.83;;
45011;SDS011;63444;48.148;11.542;2023-01-28T05:16:39;21.70;;;16.87;;
45011;SDS011;63444;48.148;11.542;2023-01-28T05:19:04;20.50;;;15.83;;
45011;SDS011;63444;48.148;11.542;2023-01-28T05:21:30;22.07;;;16.60;;
45011;SDS011;63444;48.148;11.542;2023-01-28T05:23:55;22.17;;;16.63;;
45011;SDS011;63444;48.148;11.542;2023-01-28T05:26:21;22.63;;;16.37;;
45011;SDS011;63444;48.148;11.542;2023-01-28T05:28:46;22.23;;;17.00;;
45011;SDS011;63444;48.148;11.542;2023-01-28T05:31:12;20.53;;;16.00;;
45011;SDS011;63444;48.148;11.542;2023-01-28T05:33:37;21.83;;;16.20;;
45011;SDS011;63444;48.148;11.542;2023-01-28T05:36:03;21.67;;;16.20;;
45011;SDS011;63444;48.148;11.542;2023-01-28T05:38:29;24.23;;;17.23;;
45011;SDS011;63444;48.148;11.542;2023-01-28T05:40:55;23.27;;;17.17;;
45011;SDS011;63444;48.148;11.542;2023-01-28T05:43:20;22.50;;;16.93;;
45011;SDS011;63444;48.148;11.542;2023-01-28T05:45:52;23.17;;;16.73;;
45011;SDS011;63444;48.148;11.542;2023-01-28T05:48:17;24.57;;;17.33;;
45011;SDS011;63444;48.148;11.542;2023-01-28T05:50:45;20.20;;;15.53;;
45011;SDS011;63444;48.148;11.542;2023-01-28T05:53:11;21.43;;;16.23;;
45011;SDS011;63444;48.148;11.542;2023-01-28T05:55:36;23.43;;;16.77;;
45011;SDS011;63444;48.148;11.542;2023-01-28T05:58:02;20.60;;;15.77;;
45011;SDS011;63444;48.148;11.542;2023-01-28T06:00:27;22.73;;;16.57;;
45011;SDS011;63444;48.148;11.542;2023-01-28T06:02:53;21.07;;;16.07;;
45011;SDS011;63444;48.148;11.542;2023-01-28T06:05:20;20.60;;;15.50;;
45011;SDS011;63444;48.148;11.542;2023-01-28T06:07:46;21.10;;;15.03;;
45011;SDS011;63444;48.148;11.542;2023-01-28T06:10:12;18.77;;;13.83;;
45011;SDS011;63444;48.148;11.542;2023-01-28T06:12:38;21.20;;;14.80;;
45011;SDS011;63444;48.148;11.542;2023-01-28T06:15:04;18.13;;;14.20;;
45011;SDS011;63444;48.148;11.542;2023-01-28T06:17:30;18.07;;;14.30;;
45011;SDS011;63444;48.148;11.542;2023-01-28T06:19:56;16.70;;;13.33;;
45011;SDS011;63444;48.148;11.542;2023-01-28T06:22:22;19.30;;;14.33;;
45011;SDS011;63444;48.148;11.542;2023-01-28T06:24:49;20.63;;;15.30;;
45011;SDS011;63444;48.148;11.542;2023-01-28T06:27:14;19.63;;;14.47;;
45011;SDS011;63444;48.148;11.542;2023-01-28T06:29:40;20.03;;;14.77;;
45011;SDS011;63444;48.148;11.542;2023-01-28T06:32:06;19.17;;;15.07;;
45011;SDS011;63444;48.148;11.542;2023-01-28T06:34:31;21.27;;;15.70;;
45011;SDS011;63444;48.148;11.542;2023-01-28T06:36:57;21.27;;;15.13;;
45011;SDS011;63444;48.148;11.542;2023-01-28T06:39:23;19.13;;;14.53;;
45011;SDS011;63444;48.148;11.542;2023-01-28T06:41:50;18.93;;;14.60;;
45011;SDS011;63444;48.148;11.542;2023-01-28T06:44:16;20.20;;;15.10;;
45011;SDS011;63444;48.148;11.542;2023-01-28T06:46:42;18.67;;;13.80;;
45011;SDS011;63444;48.148;11.542;2023-01-28T06:49:07;17.23;;;13.93;;
45011;SDS011;63444;48.148;11.542;2023-01-28T06:51:33;17.33;;;13.77;;
45011;SDS011;63444;48.148;11.542;2023-01-28T06:53:58;18.50;;;14.33;;
45011;SDS011;63444;48.148;11.542;2023-01-28T06:56:24;17.87;;;13.63;;
45011;SDS011;63444;48.148;11.542;2023-01-28T06:58:50;22.50;;;16.37;;
45011;SDS011;63444;48.148;11.542;2023-01-28T07:01:15;19.77;;;14.73;;
45011;SDS011;63444;48.148;11.542;2023-01-28T07:03:41;20.77;;;15.10;;
45011;SDS011;63444;48.148;11.542;2023-01-28T07:06:06;20.67;;;15.43;;
45011;SDS011;63444;48.148;11.542;2023-01-28T07:08:32;20.27;;;15.43;;
45011;SDS011;63444;48.148;11.542;2023-01-28T07:10:58;23.07;;;16.40;;
45011;SDS011;63444;48.148;11.542;2023-01-28T07:13:24;19.80;;;15.00;;
45011;SDS011;63444;48.148;11.542;2023-01-28T07:15:50;19.73;;;15.77;;
45011;SDS011;63444;48.148;11.542;2023-01-28T07:18:16;20.07;;;14.87;;
45011;SDS011;63444;48.148;11.542;2023-01-28T07:20:42;21.23;;;15.20;;
45011;SDS011;63444;48.148;11.542;2023-01-28T07:23:07;20.53;;;15.37;;
45011;SDS011;63444;48.148;11.542;2023-01-28T07:25:33;19.93;;;15.03;;
45011;SDS011;63444;48.148;11.542;2023-01-28T07:27:59;20.47;;;15.30;;
45011;SDS011;63444;48.148;11.542;2023-01-28T07:30:25;22.57;;;15.73;;
45011;SDS011;63444;48.148;11.542;2023-01-28T07:32:54;20.47;;;15.70;;
45011;SDS011;63444;48.148;11.542;2023-01-28T07:35:20;23.90;;;15.97;;
45011;SDS011;63444;48.148;11.542;2023-01-28T07:37:50;21.70;;;14.90;;
45011;SDS011;63444;48.148;11.542;2023-01-28T07:40:17;19.73;;;14.60;;
45011;SDS011;63444;48.148;11.542;2023-01-28T07:42:43;22.10;;;15.83;;
45011;SDS011;63444;48.148;11.542;2023-01-28T07:45:08;19.70;;;15.07;;
45011;SDS011;63444;48.148;11.542;2023-01-28T07:47:34;16.87;;;13.50;;
45011;SDS011;63444;48.148;11.542;2023-01-28T07:50:00;18.73;;;14.23;;
45011;SDS011;63444;48.148;11.542;2023-01-28T07:52:25;18.27;;;14.60;;
45011;SDS011;63444;48.148;11.542;2023-01-28T07:54:51;23.60;;;14.57;;
45011;SDS011;63444;48.148;11.542;2023-01-28T07:57:17;21.03;;;15.33;;
45011;SDS011;63444;48.148;11.542;2023-01-28T07:59:47;19.03;;;14.67;;
45011;SDS011;63444;48.148;11.542;2023-01-28T08:02:14;19.70;;;14.47;;
45011;SDS011;63444;48.148;11.542;2023-01-28T08:04:40;20.83;;;13.87;;
45011;SDS011;63444;48.148;11.542;2023-01-28T08:07:05;18.07;;;13.97;;
45011;SDS011;63444;48.148;11.542;2023-01-28T08:09:31;17.00;;;13.43;;
45011;SDS011;63444;48.148;11.542;2023-01-28T08:11:58;16.40;;;12.33;;
45011;SDS011;63444;48.148;11.542;2023-01-28T08:14:26;19.13;;;12.63;;
45011;SDS011;63444;48.148;11.542;2023-01-28T08:16:52;17.30;;;13.67;;
45011;SDS011;63444;48.148;11.542;2023-01-28T08:19:17;16.27;;;12.13;;
45011;SDS011;63444;48.148;11.542;2023-01-28T08:21:46;17.03;;;12.97;;
45011;SDS011;63444;48.148;11.542;2023-01-28T08:24:12;15.57;;;12.53;;
45011;SDS011;63444;48.148;11.542;2023-01-28T08:26:37;15.17;;;11.70;;
45011;SDS011;63444;48.148;11.542;2023-01-28T08:29:03;16.97;;;12.83;;
45011;SDS011;63444;48.148;11.542;2023-01-28T08:31:29;20.00;;;14.17;;
45011;SDS011;63444;48.148;11.542;2023-01-28T08:33:55;16.07;;;12.83;;
45011;SDS011;63444;48.148;11.542;2023-01-28T08:36:21;18.33;;;13.77;;
45011;SDS011;63444;48.148;11.542;2023-01-28T08:38:50;18.00;;;12.90;;
45011;SDS011;63444;48.148;11.542;2023-01-28T08:41:21;17.00;;;13.40;;
45011;SDS011;63444;48.148;11.542;2023-01-28T08:43:48;17.50;;;13.50;;
45011;SDS011;63444;48.148;11.542;2023-01-28T08:46:14;18.30;;;14.27;;
45011;SDS011;63444;48.148;11.542;2023-01-28T08:48:40;17.10;;;13.30;;
45011;SDS011;63444;48.148;11.542;2023-01-28T08:51:05;16.83;;;13.20;;
45011;SDS011;63444;48.148;11.542;2023-01-28T08:53:31;17.80;;;13.03;;
45011;SDS011;63444;48.148;11.542;2023-01-28T08:55:57;17.80;;;12.83;;
45011;SDS011;63444;48.148;11.542;2023-01-28T08:58:22;16.40;;;12.23;;
45011;SDS011;63444;48.148;11.542;2023-01-28T09:00:48;17.27;;;12.53;;
45011;SDS011;63444;48.148;11.542;2023-01-28T09:03:14;15.83;;;12.20;;
45011;SDS011;63444;48.148;11.542;2023-01-28T09:05:40;16.43;;;12.90;;
45011;SDS011;63444;48.148;11.542;2023-01-28T09:08:07;18.30;;;13.50;;
45011;SDS011;63444;48.148;11.542;2023-01-28T09:10:38;16.80;;;12.63;;
45011;SDS011;63444;48.148;11.542;2023-01-28T09:13:09;19.03;;;14.57;;
45011;SDS011;63444;48.148;11.542;2023-01-28T09:15:38;18.27;;;14.07;;
45011;SDS011;63444;48.148;11.542;2023-01-28T09:18:04;17.80;;;13.50;;
45011;SDS011;63444;48.148;11.542;2023-01-28T09:20:29;18.00;;;13.77;;
45011;SDS011;63444;48.148;11.542;2023-01-28T09:22:57;16.23;;;12.87;;
45011;SDS011;63444;48.148;11.542;2023-01-28T09:25:23;17.00;;;12.60;;
45011;SDS011;63444;48.148;11.542;2023-01-28T09:27:50;17.47;;;13.17;;
45011;SDS011;63444;48.148;11.542;2023-01-28T09:30:16;16.00;;;12.77;;
45011;SDS011;63444;48.148;11.542;2023-01-28T09:32:42;16.83;;;12.70;;
45011;SDS011;63444;48.148;11.542;2023-01-28T09:35:07;16.80;;;12.67;;
45011;SDS011;63444;48.148;11.542;2023-01-28T09:37:34;16.20;;;12.57;;
45011;SDS011;63444;48.148;11.542;2023-01-28T09:40:00;17.73;;;12.70;;
45011;SDS011;63444;48.148;11.542;2023-01-28T09:45:22;16.27;;;12.27;;
45011;SDS011;63444;48.148;11.542;2023-01-28T09:47:55;15.20;;;11.97;;
45011;SDS011;63444;48.148;11.542;2023-01-28T09:50:37;15.43;;;12.33;;
45011;SDS011;63444;48.148;11.542;2023-01-28T09:53:12;14.67;;;12.17;;
45011;SDS011;63444;48.148;11.542;2023-01-28T09:55:45;16.97;;;12.87;;
45011;SDS011;63444;48.148;11.542;2023-01-28T09:58:15;17.20;;;12.23;;
45011;SDS011;63444;48.148;11.542;2023-01-28T10:03:47;15.83;;;12.60;;
45011;SDS011;63444;48.148;11.542;2023-01-28T10:06:25;17.67;;;12.67;;
45011;SDS011;63444;48.148;11.542;2023-01-28T10:09:25;14.73;;;11.57;;
45011;SDS011;63444;48.148;11.542;2023-01-28T10:12:04;17.40;;;12.53;;
45011;SDS011;63444;48.148;11.542;2023-01-28T10:17:36;13.93;;;11.20;;
45011;SDS011;63444;48.148;11.542;2023-01-28T10:22:56;15.63;;;12.07;;
45011;SDS011;63444;48.148;11.542;2023-01-28T10:25:29;14.40;;;11.87;;
45011;SDS011;63444;48.148;11.542;2023-01-28T10:27:56;15.20;;;11.87;;
45011;SDS011;63444;48.148;11.542;2023-01-28T10:30:26;15.90;;;12.63;;
45011;SDS011;63444;48.148;11.542;2023-01-28T10:35:33;16.30;;;13.13;;
45011;SDS011;63444;48.148;11.542;2023-01-28T10:38:03;17.17;;;13.57;;
45011;SDS011;63444;48.148;11.542;2023-01-28T10:40:32;15.03;;;12.07;;
45011;SDS011;63444;48.148;11.542;2023-01-28T10:42:58;15.07;;;11.60;;
45011;SDS011;63444;48.148;11.542;2023-01-28T10:45:25;17.20;;;13.03;;
45011;SDS011;63444;48.148;11.542;2023-01-28T10:47:55;14.47;;;11.87;;
45011;SDS011;63444;48.148;11.542;2023-01-28T10:50:48;16.87;;;12.13;;
45011;SDS011;63444;48.148;11.542;2023-01-28T10:53:32;16.53;;;12.70;;
45011;SDS011;63444;48.148;11.542;2023-01-28T10:55:58;15.27;;;12.07;;
45011;SDS011;63444;48.148;11.542;2023-01-28T10:58:26;15.57;;;12.23;;
45011;SDS011;63444;48.148;11.542;2023-01-28T11:01:02;13.83;;;11.60;;
45011;SDS011;63444;48.148;11.542;2023-01-28T11:03:30;14.77;;;11.90;;
45011;SDS011;63444;48.148;11.542;2023-01-28T11:05:59;13.73;;;11.70;;
45011;SDS011;63444;48.148;11.542;2023-01-28T11:08:27;15.93;;;11.00;;
45011;SDS011;63444;48.148;11.542;2023-01-28T11:10:55;15.20;;;12.03;;
45011;SDS011;63444;48.148;11.542;2023-01-28T11:18:34;13.70;;;11.13;;
45011;SDS011;63444;48.148;11.542;2023-01-28T11:21:06;12.73;;;11.37;;
45011;SDS011;63444;48.148;11.542;2023-01-28T11:23:49;12.60;;;10.63;;
45011;SDS011;63444;48.148;11.542;2023-01-28T11:26:24;14.37;;;11.13;;
45011;SDS011;63444;48.148;11.542;2023-01-28T11:28:53;15.03;;;11.60;;
45011;SDS011;63444;48.148;11.542;2023-01-28T11:31:19;14.67;;;11.43;;
45011;SDS011;63444;48.148;11.542;2023-01-28T11:33:48;13.77;;;11.10;;
45011;SDS011;63444;48.148;11.542;2023-01-28T11:36:19;13.60;;;11.03;;
45011;SDS011;63444;48.148;11.542;2023-01-28T11:38:53;12.47;;;10.13;;
45011;SDS011;63444;48.148;11.542;2023-01-28T11:41:28;12.63;;;9.93;;
45011;SDS011;63444;48.148;11.542;2023-01-28T11:43:54;12.87;;;10.10;;
45011;SDS011;63444;48.148;11.542;2023-01-28T11:49:21;12.87;;;9.73;;
45011;SDS011;63444;48.148;11.542;2023-01-28T11:54:55;12.80;;;10.47;;
45011;SDS011;63444;48.148;11.542;2023-01-28T11:57:24;11.70;;;9.97;;
45011;SDS011;63444;48.148;11.542;2023-01-28T12:05:24;11.80;;;9.73;;
45011;SDS011;63444;48.148;11.542;2023-01-28T12:08:28;13.40;;;9.47;;
45011;SDS011;63444;48.148;11.542;2023-01-28T12:19:41;12.00;;;9.23;;
45011;SDS011;63444;48.148;11.542;2023-01-28T12:28:13;12.63;;;9.70;;
45011;SDS011;63444;48.148;11.542;2023-01-28T12:30:34;12.23;;;10.23;;
45011;SDS011;63444;48.148;11.542;2023-01-28T12:42:10;14.07;;;10.67;;
45011;SDS011;63444;48.148;11.542;2023-01-28T12:44:42;13.17;;;11.03;;
45011;SDS011;63444;48.148;11.542;2023-01-28T12:47:15;13.23;;;10.33;;
45011;SDS011;63444;48.148;11.542;2023-01-28T12:49:52;12.33;;;10.53;;
45011;SDS011;63444;48.148;11.542;2023-01-28T12:52:53;16.57;;;12.23;;
45011;SDS011;63444;48.148;11.542;2023-01-28T12:55:36;14.63;;;11.63;;
45011;SDS011;63444;48.148;11.542;2023-01-28T12:58:11;16.03;;;11.33;;
45011;SDS011;63444;48.148;11.542;2023-01-28T13:00:45;13.53;;;11.07;;
45011;SDS011;63444;48.148;11.542;2023-01-28T13:08:55;13.30;;;10.40;;
45011;SDS011;63444;48.148;11.542;2023-01-28T13:11:34;16.23;;;12.27;;
45011;SDS011;63444;48.148;11.542;2023-01-28T13:14:00;13.30;;;10.53;;
45011;SDS011;63444;48.148;11.542;2023-01-28T13:16:27;14.93;;;10.57;;
45011;SDS011;63444;48.148;11.542;2023-01-28T13:18:53;14.27;;;11.37;;
45011;SDS011;63444;48.148;11.542;2023-01-28T13:21:43;12.93;;;10.20;;
45011;SDS011;63444;48.148;11.542;2023-01-28T13:26:43;14.03;;;10.97;;
45011;SDS011;63444;48.148;11.542;2023-01-28T13:31:41;14.17;;;11.27;;
45011;SDS011;63444;48.148;11.542;2023-01-28T13:36:57;15.17;;;10.73;;
45011;SDS011;63444;48.148;11.542;2023-01-28T13:39:49;13.57;;;11.03;;
45011;SDS011;63444;48.148;11.542;2023-01-28T13:42:27;13.90;;;11.30;;
45011;SDS011;63444;48.148;11.542;2023-01-28T13:44:54;13.33;;;9.97;;
45011;SDS011;63444;48.148;11.542;2023-01-28T13:47:33;14.07;;;10.43;;
45011;SDS011;63444;48.148;11.542;2023-01-28T13:50:11;13.77;;;10.20;;
45011;SDS011;63444;48.148;11.542;2023-01-28T13:53:02;11.67;;;9.83;;
45011;SDS011;63444;48.148;11.542;2023-01-28T13:55:41;14.93;;;10.97;;
45011;SDS011;63444;48.148;11.542;2023-01-28T14:04:06;16.53;;;11.30;;
45011;SDS011;63444;48.148;11.542;2023-01-28T14:07:00;16.40;;;11.30;;
45011;SDS011;63444;48.148;11.542;2023-01-28T14:12:33;12.97;;;10.47;;
45011;SDS011;63444;48.148;11.542;2023-01-28T14:18:28;13.13;;;9.97;;
45011;SDS011;63444;48.148;11.542;2023-01-28T14:20:54;12.50;;;9.97;;
45011;SDS011;63444;48.148;11.542;2023-01-28T14:23:24;16.50;;;10.53;;
45011;SDS011;63444;48.148;11.542;2023-01-28T14:28:34;16.07;;;11.53;;
45011;SDS011;63444;48.148;11.542;2023-01-28T14:31:14;15.90;;;12.00;;
45011;SDS011;63444;48.148;11.542;2023-01-28T14:34:02;14.73;;;11.57;;
45011;SDS011;63444;48.148;11.542;2023-01-28T14:36:42;16.40;;;12.00;;
45011;SDS011;63444;48.148;11.542;2023-01-28T14:39:17;15.23;;;12.07;;
45011;SDS011;63444;48.148;11.542;2023-01-28T14:41:45;14.03;;;11.00;;
45011;SDS011;63444;48.148;11.542;2023-01-28T14:44:19;13.70;;;11.53;;
45011;SDS011;63444;48.148;11.542;2023-01-28T14:49:47;15.57;;;11.50;;
45011;SDS011;63444;48.148;11.542;2023-01-28T14:55:03;13.37;;;10.77;;
45011;SDS011;63444;48.148;11.542;2023-01-28T14:57:51;14.43;;;11.27;;
45011;SDS011;63444;48.148;11.542;2023-01-28T15:00:22;15.07;;;11.13;;
45011;SDS011;63444;48.148;11.542;2023-01-28T15:02:49;15.20;;;10.77;;
45011;SDS011;63444;48.148;11.542;2023-01-28T15:05:16;12.43;;;9.93;;
45011;SDS011;63444;48.148;11.542;2023-01-28T15:07:47;15.03;;;10.20;;
45011;SDS011;63444;48.148;11.542;2023-01-28T15:10:19;12.30;;;9.87;;
45011;SDS011;63444;48.148;11.542;2023-01-28T15:12:51;13.07;;;10.73;;
45011;SDS011;63444;48.148;11.542;2023-01-28T15:15:23;13.97;;;10.67;;
45011;SDS011;63444;48.148;11.542;2023-01-28T15:17:50;13.70;;;10.73;;
45011;SDS011;63444;48.148;11.542;2023-01-28T15:20:20;13.40;;;9.77;;
45011;SDS011;63444;48.148;11.542;2023-01-28T15:22:47;14.77;;;10.53;;
45011;SDS011;63444;48.148;11.542;2023-01-28T15:25:25;12.73;;;10.60;;
45011;SDS011;63444;48.148;11.542;2023-01-28T15:27:53;13.47;;;10.07;;
45011;SDS011;63444;48.148;11.542;2023-01-28T15:30:24;13.63;;;10.20;;
45011;SDS011;63444;48.148;11.542;2023-01-28T15:32:56;13.20;;;10.00;;
45011;SDS011;63444;48.148;11.542;2023-01-28T15:35:23;11.97;;;9.03;;
45011;SDS011;63444;48.148;11.542;2023-01-28T15:37:49;14.87;;;9.90;;
45011;SDS011;63444;48.148;11.542;2023-01-28T15:40:18;12.73;;;9.77;;
45011;SDS011;63444;48.148;11.542;2023-01-28T15:42:46;14.27;;;9.90;;
45011;SDS011;63444;48.148;11.542;2023-01-28T15:45:15;11.87;;;9.00;;
45011;SDS011;63444;48.148;11.542;2023-01-28T15:47:44;12.77;;;9.40;;
45011;SDS011;63444;48.148;11.542;2023-01-28T15:50:16;11.37;;;8.60;;
45011;SDS011;63444;48.148;11.542;2023-01-28T15:52:44;11.40;;;8.60;;
45011;SDS011;63444;48.148;11.542;2023-01-28T15:57:51;9.90;;;8.73;;
45011;SDS011;63444;48.148;11.542;2023-01-28T16:00:20;11.63;;;9.17;;
45011;SDS011;63444;48.148;11.542;2023-01-28T16:02:47;10.37;;;8.47;;
45011;SDS011;63444;48.148;11.542;2023-01-28T16:07:58;11.97;;;8.93;;
45011;SDS011;63444;48.148;11.542;2023-01-28T16:10:27;12.67;;;9.20;;
45011;SDS011;63444;48.148;11.542;2023-01-28T16:12:57;12.67;;;9.53;;
45011;SDS011;63444;48.148;11.542;2023-01-28T16:15:34;11.00;;;8.40;;
45011;SDS011;63444;48.148;11.542;2023-01-28T16:18:02;12.63;;;9.03;;
45011;SDS011;63444;48.148;11.542;2023-01-28T16:20:29;11.17;;;9.33;;
45011;SDS011;63444;48.148;11.542;2023-01-28T16:22:56;12.73;;;9.63;;
45011;SDS011;63444;48.148;11.542;2023-01-28T16:25:31;12.00;;;9.73;;
45011;SDS011;63444;48.148;11.542;2023-01-28T16:27:59;14.47;;;9.50;;